createdAt,value
2019-05-06T00:00:17.730Z,975.49
2019-05-06T00:01:17.711Z,975.57
2019-05-06T00:02:17.787Z,975.57
2019-05-06T00:03:17.729Z,975.50
2019-05-06T00:04:17.707Z,975.55
2019-05-06T00:05:17.764Z,975.62
2019-05-06T00:06:17.711Z,975.57
2019-05-06T00:07:17.715Z,975.59
2019-05-06T00:08:17.738Z,975.64
2019-05-06T00:09:17.765Z,975.60
2019-05-06T00:10:17.716Z,975.74
2019-05-06T00:11:17.777Z,975.71
2019-05-06T00:12:17.729Z,975.82
2019-05-06T00:13:17.713Z,975.80
2019-05-06T00:14:17.793Z,975.88
2019-05-06T00:15:17.735Z,975.73
2019-05-06T00:16:17.760Z,975.74
2019-05-06T00:17:17.776Z,975.87
2019-05-06T00:18:17.709Z,975.76
2019-05-06T00:19:17.737Z,975.75
2019-05-06T00:20:17.767Z,975.83
2019-05-06T00:21:17.751Z,975.70
2019-05-06T00:22:17.755Z,975.84
2019-05-06T00:23:17.726Z,975.89
2019-05-06T00:24:17.735Z,975.84
2019-05-06T00:25:17.776Z,975.76
2019-05-06T00:26:17.801Z,975.82
2019-05-06T00:27:17.750Z,975.87
2019-05-06T00:28:17.750Z,975.69
2019-05-06T00:29:17.736Z,975.71
2019-05-06T00:30:17.757Z,975.74
2019-05-06T00:31:17.754Z,975.60
2019-05-06T00:32:17.809Z,975.68
2019-05-06T00:33:17.770Z,975.57
2019-05-06T00:34:17.748Z,975.64
2019-05-06T00:35:17.779Z,975.71
2019-05-06T00:36:17.776Z,975.68
2019-05-06T00:37:17.770Z,975.65
2019-05-06T00:38:17.738Z,975.77
2019-05-06T00:39:17.757Z,975.67
2019-05-06T00:40:17.744Z,975.75
2019-05-06T00:41:17.783Z,975.72
2019-05-06T00:42:17.765Z,975.70
2019-05-06T00:43:17.753Z,975.77
2019-05-06T00:44:17.786Z,975.75
2019-05-06T00:45:17.749Z,975.77
2019-05-06T00:46:17.770Z,975.77
2019-05-06T00:47:17.792Z,975.76
2019-05-06T00:48:17.744Z,975.73
2019-05-06T00:49:17.779Z,975.70
2019-05-06T00:50:17.819Z,975.76
2019-05-06T00:51:17.760Z,975.64
2019-05-06T00:52:17.751Z,975.68
2019-05-06T00:53:17.796Z,975.79
2019-05-06T00:54:17.759Z,975.73
2019-05-06T00:55:17.749Z,975.71
2019-05-06T00:56:17.799Z,975.65
2019-05-06T00:57:17.794Z,975.81
2019-05-06T00:58:17.752Z,975.84
2019-05-06T00:59:17.824Z,975.74
2019-05-06T01:00:17.798Z,975.80
2019-05-06T01:01:26.910Z,975.77
2019-05-06T01:02:17.772Z,975.68
2019-05-06T01:03:17.780Z,975.73
2019-05-06T01:04:17.767Z,975.75
2019-05-06T01:05:17.833Z,975.79
2019-05-06T01:06:17.800Z,975.67
2019-05-06T01:07:17.772Z,975.64
2019-05-06T01:08:17.802Z,975.65
2019-05-06T01:09:17.766Z,975.72
2019-05-06T01:10:17.852Z,975.72
2019-05-06T01:11:17.818Z,975.68
2019-05-06T01:12:17.792Z,975.58
2019-05-06T01:13:17.763Z,975.68
2019-05-06T01:14:17.820Z,975.73
2019-05-06T01:15:17.783Z,975.76
2019-05-06T01:16:17.784Z,975.83
2019-05-06T01:17:17.791Z,975.79
2019-05-06T01:18:17.796Z,975.70
2019-05-06T01:19:17.765Z,975.78
2019-05-06T01:20:17.757Z,975.79
2019-05-06T01:21:17.766Z,975.74
2019-05-06T01:22:17.777Z,975.77
2019-05-06T01:23:17.815Z,975.76
2019-05-06T01:24:17.775Z,975.79
2019-05-06T01:25:17.782Z,975.77
2019-05-06T01:26:17.775Z,975.78
2019-05-06T01:27:17.786Z,975.67
2019-05-06T01:28:17.823Z,975.78
2019-05-06T01:29:17.810Z,975.86
2019-05-06T01:30:17.802Z,975.79
2019-05-06T01:31:17.792Z,975.83
2019-05-06T01:32:17.783Z,975.91
2019-05-06T01:33:17.798Z,975.89
2019-05-06T01:34:17.855Z,975.84
2019-05-06T01:35:17.824Z,975.94
2019-05-06T01:36:17.765Z,975.97
2019-05-06T01:37:17.787Z,975.99
2019-05-06T01:38:17.823Z,975.94
2019-05-06T01:39:17.814Z,976.06
2019-05-06T01:40:17.775Z,975.91
2019-05-06T01:41:17.789Z,976.01
2019-05-06T01:42:17.793Z,976.05
2019-05-06T01:43:17.850Z,975.94
2019-05-06T01:44:17.842Z,976.00
2019-05-06T01:45:17.811Z,976.07
2019-05-06T01:46:17.784Z,976.05
2019-05-06T01:47:17.823Z,976.03
2019-05-06T01:48:17.800Z,976.09
2019-05-06T01:49:17.809Z,975.96
2019-05-06T01:50:17.806Z,975.96
2019-05-06T01:51:17.809Z,976.03
2019-05-06T01:52:17.784Z,976.15
2019-05-06T01:53:17.824Z,976.07
2019-05-06T01:54:17.783Z,976.06
2019-05-06T01:55:17.777Z,976.05
2019-05-06T01:56:17.851Z,976.17
2019-05-06T01:57:17.805Z,976.31
2019-05-06T01:58:17.796Z,976.15
2019-05-06T01:59:17.810Z,976.16
2019-05-06T02:00:17.829Z,976.02
2019-05-06T02:01:17.802Z,976.10
2019-05-06T02:02:17.822Z,976.12
2019-05-06T02:03:17.816Z,976.14
2019-05-06T02:04:17.796Z,976.04
2019-05-06T02:05:17.812Z,976.13
2019-05-06T02:06:17.829Z,976.08
2019-05-06T02:07:17.804Z,976.03
2019-05-06T02:08:17.837Z,976.04
2019-05-06T02:09:17.826Z,976.13
2019-05-06T02:10:17.800Z,976.16
2019-05-06T02:11:17.823Z,976.09
2019-05-06T02:12:17.812Z,976.15
2019-05-06T02:13:17.837Z,976.22
2019-05-06T02:14:17.852Z,976.27
2019-05-06T02:15:17.820Z,976.22
2019-05-06T02:16:17.796Z,976.17
2019-05-06T02:17:17.841Z,976.12
2019-05-06T02:18:17.802Z,976.06
2019-05-06T02:19:17.791Z,976.09
2019-05-06T02:20:17.837Z,976.11
2019-05-06T02:21:17.813Z,976.13
2019-05-06T02:22:17.816Z,976.01
2019-05-06T02:23:17.803Z,976.05
2019-05-06T02:24:17.829Z,976.02
2019-05-06T02:25:17.805Z,976.09
2019-05-06T02:26:17.817Z,976.01
2019-05-06T02:27:17.817Z,976.00
2019-05-06T02:28:17.817Z,976.00
2019-05-06T02:29:17.828Z,976.09
2019-05-06T02:30:17.821Z,976.05
2019-05-06T02:31:17.834Z,975.95
2019-05-06T02:32:26.064Z,975.94
2019-05-06T02:33:17.880Z,975.92
2019-05-06T02:34:17.818Z,975.97
2019-05-06T02:35:17.877Z,975.93
2019-05-06T02:36:17.856Z,975.98
2019-05-06T02:37:17.840Z,976.02
2019-05-06T02:38:17.839Z,975.95
2019-05-06T02:39:17.818Z,976.02
2019-05-06T02:40:17.889Z,975.94
2019-05-06T02:41:17.837Z,975.98
2019-05-06T02:42:17.828Z,975.93
2019-05-06T02:43:17.866Z,975.95
2019-05-06T02:44:17.855Z,976.00
2019-05-06T02:45:17.821Z,975.96
2019-05-06T02:46:17.831Z,976.09
2019-05-06T02:47:17.828Z,975.99
2019-05-06T02:48:17.853Z,976.02
2019-05-06T02:49:17.852Z,975.96
2019-05-06T02:50:17.837Z,976.02
2019-05-06T02:51:17.836Z,976.08
2019-05-06T02:52:17.837Z,975.96
2019-05-06T02:53:17.861Z,975.95
2019-05-06T02:54:17.825Z,975.90
2019-05-06T02:55:17.902Z,975.92
2019-05-06T02:56:17.874Z,975.90
2019-05-06T02:57:17.836Z,975.81
2019-05-06T02:58:17.846Z,975.96
2019-05-06T02:59:17.874Z,975.85
2019-05-06T03:00:17.867Z,975.80
2019-05-06T03:01:17.835Z,975.84
2019-05-06T03:02:37.547Z,975.81
2019-05-06T03:03:17.828Z,975.83
2019-05-06T03:04:17.840Z,975.93
2019-05-06T03:05:17.866Z,975.89
2019-05-06T03:06:17.873Z,975.87
2019-05-06T03:07:17.843Z,975.95
2019-05-06T03:08:17.891Z,975.96
2019-05-06T03:09:17.837Z,975.98
2019-05-06T03:10:17.842Z,975.91
2019-05-06T03:11:17.851Z,975.88
2019-05-06T03:12:17.857Z,976.01
2019-05-06T03:13:17.843Z,975.91
2019-05-06T03:14:17.855Z,975.87
2019-05-06T03:15:17.864Z,976.02
2019-05-06T03:16:17.846Z,975.75
2019-05-06T03:17:17.911Z,975.89
2019-05-06T03:18:17.858Z,975.82
2019-05-06T03:19:17.863Z,975.73
2019-05-06T03:20:17.881Z,975.68
2019-05-06T03:21:17.869Z,975.66
2019-05-06T03:22:17.844Z,975.58
2019-05-06T03:23:17.872Z,975.70
2019-05-06T03:24:17.880Z,975.75
2019-05-06T03:25:17.868Z,975.75
2019-05-06T03:26:17.879Z,975.75
2019-05-06T03:27:17.866Z,975.80
2019-05-06T03:28:17.859Z,975.92
2019-05-06T03:29:17.909Z,975.89
2019-05-06T03:30:17.876Z,976.00
2019-05-06T03:31:17.870Z,976.10
2019-05-06T03:32:24.851Z,976.09
2019-05-06T03:33:40.055Z,976.13
2019-05-06T03:35:33.764Z,976.20
2019-05-06T03:36:25.675Z,976.21
2019-05-06T03:37:17.890Z,976.18
2019-05-06T03:38:17.877Z,976.21
2019-05-06T03:39:17.877Z,976.19
2019-05-06T03:40:17.867Z,976.14
2019-05-06T03:41:17.871Z,976.18
2019-05-06T03:42:17.863Z,976.24
2019-05-06T03:43:17.867Z,976.19
2019-05-06T03:44:17.864Z,976.15
2019-05-06T03:45:17.880Z,976.22
2019-05-06T03:46:17.869Z,976.27
2019-05-06T03:47:17.867Z,976.19
2019-05-06T03:48:17.885Z,976.16
2019-05-06T03:49:17.860Z,976.07
2019-05-06T03:50:17.859Z,976.07
2019-05-06T03:51:17.897Z,976.15
2019-05-06T03:52:17.911Z,976.10
2019-05-06T03:53:17.869Z,976.05
2019-05-06T03:54:17.890Z,976.08
2019-05-06T03:55:17.893Z,976.06
2019-05-06T03:56:19.867Z,976.11
2019-05-06T03:57:17.886Z,976.05
2019-05-06T03:58:17.871Z,976.00
2019-05-06T03:59:17.908Z,976.21
2019-05-06T04:00:17.886Z,976.03
2019-05-06T04:01:17.890Z,976.18
2019-05-06T04:02:17.878Z,976.21
2019-05-06T04:03:17.877Z,976.23
2019-05-06T04:04:17.932Z,976.23
2019-05-06T04:05:17.905Z,976.19
2019-05-06T04:06:17.875Z,976.16
2019-05-06T04:07:17.907Z,976.20
2019-05-06T04:08:20.224Z,976.34
2019-05-06T04:09:17.908Z,976.31
2019-05-06T04:10:17.881Z,976.33
2019-05-06T04:11:17.903Z,976.32
2019-05-06T04:12:17.908Z,976.07
2019-05-06T04:13:17.933Z,976.27
2019-05-06T04:14:17.903Z,976.30
2019-05-06T04:15:17.885Z,976.27
2019-05-06T04:16:17.879Z,976.42
2019-05-06T04:17:17.895Z,976.29
2019-05-06T04:18:17.934Z,976.34
2019-05-06T04:19:17.899Z,976.32
2019-05-06T04:20:17.920Z,976.33
2019-05-06T04:21:17.888Z,976.31
2019-05-06T04:22:17.912Z,976.38
2019-05-06T04:23:17.945Z,976.42
2019-05-06T04:24:17.897Z,976.26
2019-05-06T04:25:17.911Z,976.41
2019-05-06T04:26:17.887Z,976.41
2019-05-06T04:27:17.906Z,976.33
2019-05-06T04:28:17.901Z,976.45
2019-05-06T04:29:17.941Z,976.36
2019-05-06T04:30:17.911Z,976.42
2019-05-06T04:31:17.882Z,976.44
2019-05-06T04:32:17.933Z,976.41
2019-05-06T04:33:17.951Z,976.39
2019-05-06T04:34:19.660Z,976.39
2019-05-06T04:35:17.935Z,976.42
2019-05-06T04:36:17.898Z,976.53
2019-05-06T04:37:17.893Z,976.36
2019-05-06T04:38:17.914Z,976.51
2019-05-06T04:39:17.919Z,976.42
2019-05-06T04:40:17.896Z,976.38
2019-05-06T04:41:17.935Z,976.32
2019-05-06T04:42:17.899Z,976.35
2019-05-06T04:43:17.890Z,976.39
2019-05-06T04:44:17.900Z,976.42
2019-05-06T04:45:17.921Z,976.41
2019-05-06T04:46:17.935Z,976.45
2019-05-06T04:47:17.938Z,976.38
2019-05-06T04:48:17.933Z,976.45
2019-05-06T04:49:17.899Z,976.42
2019-05-06T04:50:17.945Z,976.43
2019-05-06T04:51:17.917Z,976.41
2019-05-06T04:52:17.939Z,976.48
2019-05-06T04:53:17.912Z,976.41
2019-05-06T04:54:17.930Z,976.58
2019-05-06T04:55:17.922Z,976.33
2019-05-06T04:56:17.943Z,976.54
2019-05-06T04:57:17.936Z,976.39
2019-05-06T04:58:17.987Z,976.58
2019-05-06T04:59:17.957Z,976.44
2019-05-06T05:00:17.908Z,976.43
2019-05-06T05:01:17.919Z,976.34
2019-05-06T05:02:17.927Z,976.39
2019-05-06T05:03:17.900Z,976.41
2019-05-06T05:04:28.188Z,976.45
2019-05-06T05:05:17.885Z,976.38
2019-05-06T05:06:17.920Z,976.43
2019-05-06T05:07:17.950Z,976.36
2019-05-06T05:08:17.903Z,976.52
2019-05-06T05:09:17.947Z,976.65
2019-05-06T05:10:17.934Z,976.53
2019-05-06T05:11:17.953Z,976.45
2019-05-06T05:12:17.915Z,976.49
2019-05-06T05:13:17.913Z,976.62
2019-05-06T05:14:21.666Z,976.50
2019-05-06T05:15:17.930Z,976.53
2019-05-06T05:16:17.929Z,976.53
2019-05-06T05:17:17.972Z,976.61
2019-05-06T05:18:17.913Z,976.60
2019-05-06T05:19:17.924Z,976.61
2019-05-06T05:20:17.941Z,976.66
2019-05-06T05:21:17.932Z,976.53
2019-05-06T05:22:17.951Z,976.60
2019-05-06T05:23:17.973Z,976.62
2019-05-06T05:24:17.932Z,976.61
2019-05-06T05:25:17.935Z,976.54
2019-05-06T05:26:17.948Z,976.55
2019-05-06T05:27:17.945Z,976.68
2019-05-06T05:28:17.938Z,976.69
2019-05-06T05:29:17.908Z,976.59
2019-05-06T05:30:17.941Z,976.64
2019-05-06T05:31:17.947Z,976.53
2019-05-06T05:32:17.898Z,976.66
2019-05-06T05:33:17.931Z,976.66
2019-05-06T05:34:17.972Z,976.67
2019-05-06T05:35:17.976Z,976.66
2019-05-06T05:36:17.946Z,976.68
2019-05-06T05:37:17.917Z,976.64
2019-05-06T05:38:17.964Z,976.70
2019-05-06T05:39:17.948Z,976.60
2019-05-06T05:40:17.954Z,976.66
2019-05-06T05:41:17.986Z,976.78
2019-05-06T05:42:17.952Z,976.77
2019-05-06T05:43:17.983Z,976.71
2019-05-06T05:44:17.933Z,976.69
2019-05-06T05:45:18.000Z,976.77
2019-05-06T05:46:17.983Z,976.75
2019-05-06T05:47:17.965Z,976.76
2019-05-06T05:48:17.949Z,976.74
2019-05-06T05:49:20.140Z,976.71
2019-05-06T05:50:17.999Z,976.69
2019-05-06T05:51:17.942Z,976.56
2019-05-06T05:52:17.981Z,976.83
2019-05-06T05:53:17.956Z,976.65
2019-05-06T05:54:17.950Z,976.89
2019-05-06T05:55:17.980Z,977.00
2019-05-06T05:56:17.937Z,976.71
2019-05-06T05:57:17.939Z,976.81
2019-05-06T05:58:17.947Z,976.77
2019-05-06T05:59:17.950Z,976.74
2019-05-06T06:00:17.938Z,976.87
2019-05-06T06:01:17.943Z,976.94
2019-05-06T06:02:17.922Z,976.69
2019-05-06T06:03:17.962Z,976.90
2019-05-06T06:04:17.957Z,976.78
2019-05-06T06:05:17.955Z,976.88
2019-05-06T06:06:18.002Z,976.91
2019-05-06T06:07:17.953Z,976.60
2019-05-06T06:08:17.987Z,976.81
2019-05-06T06:09:17.967Z,976.85
2019-05-06T06:10:18.041Z,976.93
2019-05-06T06:11:18.015Z,976.90
2019-05-06T06:12:17.971Z,976.77
2019-05-06T06:13:17.951Z,976.89
2019-05-06T06:14:17.984Z,976.92
2019-05-06T06:15:17.955Z,976.99
2019-05-06T06:16:17.981Z,976.99
2019-05-06T06:17:17.994Z,976.82
2019-05-06T06:18:17.975Z,976.88
2019-05-06T06:19:17.970Z,976.99
2019-05-06T06:20:17.967Z,977.06
2019-05-06T06:21:23.125Z,977.00
2019-05-06T06:22:17.988Z,977.00
2019-05-06T06:23:18.011Z,976.93
2019-05-06T06:24:17.956Z,976.97
2019-05-06T06:25:18.023Z,976.80
2019-05-06T06:26:17.994Z,977.10
2019-05-06T06:27:17.991Z,976.93
2019-05-06T06:28:17.964Z,977.05
2019-05-06T06:29:17.960Z,977.02
2019-05-06T06:30:17.981Z,976.89
2019-05-06T06:31:18.042Z,977.07
2019-05-06T06:32:18.025Z,977.07
2019-05-06T06:33:17.990Z,977.07
2019-05-06T06:34:18.025Z,977.09
2019-05-06T06:35:19.202Z,977.09
2019-05-06T06:36:17.990Z,977.01
2019-05-06T06:37:18.065Z,977.03
2019-05-06T06:38:17.984Z,977.05
2019-05-06T06:39:17.979Z,977.16
2019-05-06T06:40:18.042Z,977.14
2019-05-06T06:41:18.041Z,977.06
2019-05-06T06:42:18.014Z,977.05
2019-05-06T06:43:18.051Z,977.05
2019-05-06T06:44:18.023Z,976.97
2019-05-06T06:45:17.991Z,977.08
2019-05-06T06:46:18.012Z,977.03
2019-05-06T06:47:18.011Z,977.06
2019-05-06T06:48:18.004Z,977.09
2019-05-06T06:49:18.050Z,977.02
2019-05-06T06:50:17.989Z,977.05
2019-05-06T06:51:17.991Z,977.06
2019-05-06T06:52:18.052Z,977.02
2019-05-06T06:53:18.021Z,977.15
2019-05-06T06:54:18.011Z,977.02
2019-05-06T06:55:18.602Z,976.87
2019-05-06T06:56:17.994Z,977.00
2019-05-06T06:57:18.002Z,977.28
2019-05-06T06:58:18.077Z,977.14
2019-05-06T06:59:18.053Z,977.02
2019-05-06T07:00:18.043Z,977.16
2019-05-06T07:01:18.064Z,977.06
2019-05-06T07:02:18.007Z,977.13
2019-05-06T07:03:17.987Z,977.20
2019-05-06T07:04:18.045Z,976.98
2019-05-06T07:05:27.678Z,977.03
2019-05-06T07:06:18.008Z,977.19
2019-05-06T07:07:18.017Z,977.01
2019-05-06T07:08:31.368Z,977.06
2019-05-06T07:09:18.010Z,977.01
2019-05-06T07:10:18.060Z,977.10
2019-05-06T07:11:18.015Z,977.07
2019-05-06T07:12:18.049Z,977.08
2019-05-06T07:13:18.019Z,976.96
2019-05-06T07:14:18.038Z,977.07
2019-05-06T07:15:18.009Z,977.03
2019-05-06T07:16:20.482Z,977.05
2019-05-06T07:17:18.070Z,977.08
2019-05-06T07:18:18.024Z,977.07
2019-05-06T07:19:18.066Z,977.00
2019-05-06T07:20:18.008Z,977.14
2019-05-06T07:21:18.045Z,977.14
2019-05-06T07:22:18.078Z,977.09
2019-05-06T07:23:18.015Z,977.13
2019-05-06T07:24:18.000Z,977.04
2019-05-06T07:25:18.068Z,977.13
2019-05-06T07:26:18.027Z,977.07
2019-05-06T07:27:18.011Z,977.01
2019-05-06T07:28:18.015Z,976.92
2019-05-06T07:29:23.607Z,976.93
2019-05-06T07:30:18.035Z,976.79
2019-05-06T07:31:22.206Z,977.11
2019-05-06T07:32:18.072Z,976.95
2019-05-06T07:33:18.022Z,977.01
2019-05-06T07:34:18.082Z,976.91
2019-05-06T07:35:18.016Z,977.03
2019-05-06T07:36:20.116Z,976.97
2019-05-06T07:37:18.078Z,977.09
2019-05-06T07:38:18.057Z,977.02
2019-05-06T07:39:18.090Z,976.93
2019-05-06T07:40:18.093Z,977.00
2019-05-06T07:41:18.055Z,976.95
2019-05-06T07:42:18.036Z,977.04
2019-05-06T07:43:18.057Z,976.93
2019-05-06T07:44:18.056Z,976.88
2019-05-06T07:45:18.025Z,976.99
2019-05-06T07:46:18.088Z,976.96
2019-05-06T07:47:18.052Z,976.90
2019-05-06T07:48:18.048Z,976.98
2019-05-06T07:49:18.091Z,977.04
2019-05-06T07:50:18.077Z,977.09
2019-05-06T07:51:18.021Z,977.12
2019-05-06T07:52:18.093Z,976.97
2019-05-06T07:53:18.072Z,976.97
2019-05-06T07:54:18.039Z,977.04
2019-05-06T07:55:18.045Z,977.10
2019-05-06T07:56:18.043Z,977.12
2019-05-06T07:57:18.028Z,977.12
2019-05-06T07:58:18.031Z,977.12
2019-05-06T07:59:18.064Z,977.19
2019-05-06T08:00:18.066Z,977.14
2019-05-06T08:01:18.042Z,977.26
2019-05-06T08:02:18.024Z,977.13
2019-05-06T08:03:18.035Z,977.21
2019-05-06T08:04:18.037Z,977.26
2019-05-06T08:05:18.059Z,977.42
2019-05-06T08:06:18.072Z,977.26
2019-05-06T08:07:18.095Z,977.36
2019-05-06T08:08:18.081Z,977.34
2019-05-06T08:09:18.049Z,977.30
2019-05-06T08:10:18.072Z,977.35
2019-05-06T08:11:18.081Z,977.39
2019-05-06T08:12:18.102Z,977.35
2019-05-06T08:13:18.065Z,977.29
2019-05-06T08:14:18.078Z,977.45
2019-05-06T08:15:18.065Z,977.33
2019-05-06T08:16:18.071Z,977.48
2019-05-06T08:17:18.107Z,977.41
2019-05-06T08:18:18.051Z,977.51
2019-05-06T08:19:18.070Z,977.46
2019-05-06T08:20:18.106Z,977.55
2019-05-06T08:21:18.045Z,977.52
2019-05-06T08:22:18.087Z,977.46
2019-05-06T08:23:18.096Z,977.56
2019-05-06T08:24:18.092Z,977.53
2019-05-06T08:25:18.059Z,977.66
2019-05-06T08:26:18.280Z,977.49
2019-05-06T08:27:18.052Z,977.53
2019-05-06T08:28:18.083Z,977.52
2019-05-06T08:29:18.085Z,977.66
2019-05-06T08:30:18.102Z,977.57
2019-05-06T08:31:18.074Z,977.58
2019-05-06T08:32:18.047Z,977.38
2019-05-06T08:33:18.053Z,977.48
2019-05-06T08:34:18.093Z,977.48
2019-05-06T08:35:18.117Z,977.56
2019-05-06T08:36:18.087Z,977.72
2019-05-06T08:37:18.082Z,977.64
2019-05-06T08:38:18.050Z,977.64
2019-05-06T08:39:18.050Z,977.59
2019-05-06T08:40:18.088Z,977.61
2019-05-06T08:41:18.073Z,977.65
2019-05-06T08:42:18.084Z,977.57
2019-05-06T08:43:18.091Z,977.62
2019-05-06T08:44:18.082Z,977.84
2019-05-06T08:45:18.065Z,977.66
2019-05-06T08:46:18.103Z,977.71
2019-05-06T08:47:18.131Z,977.65
2019-05-06T08:48:18.086Z,977.73
2019-05-06T08:49:18.085Z,977.66
2019-05-06T08:50:18.052Z,977.78
2019-05-06T08:51:18.089Z,977.71
2019-05-06T08:52:18.137Z,977.75
2019-05-06T08:53:18.060Z,977.88
2019-05-06T08:54:18.081Z,977.80
2019-05-06T08:55:18.091Z,977.63
2019-05-06T08:56:18.061Z,977.86
2019-05-06T08:57:18.073Z,977.82
2019-05-06T08:58:18.139Z,977.89
2019-05-06T08:59:18.084Z,977.70
2019-05-06T09:00:18.095Z,977.86
2019-05-06T09:01:18.090Z,977.82
2019-05-06T09:02:18.073Z,978.00
2019-05-06T09:03:18.076Z,977.84
2019-05-06T09:04:18.110Z,977.90
2019-05-06T09:05:18.144Z,977.85
2019-05-06T09:06:29.249Z,977.90
2019-05-06T09:07:18.111Z,977.83
2019-05-06T09:08:18.127Z,977.92
2019-05-06T09:09:18.081Z,977.89
2019-05-06T09:10:18.112Z,977.86
2019-05-06T09:11:18.093Z,977.85
2019-05-06T09:12:18.066Z,977.89
2019-05-06T09:13:18.107Z,977.87
2019-05-06T09:14:18.118Z,977.90
2019-05-06T09:15:18.061Z,977.90
2019-05-06T09:16:18.125Z,977.87
2019-05-06T09:17:18.109Z,977.85
2019-05-06T09:18:18.098Z,977.92
2019-05-06T09:19:18.111Z,977.92
2019-05-06T09:20:18.085Z,977.99
2019-05-06T09:21:18.109Z,977.90
2019-05-06T09:22:18.145Z,977.86
2019-05-06T09:23:18.101Z,977.91
2019-05-06T09:24:18.097Z,977.86
2019-05-06T09:25:18.114Z,977.99
2019-05-06T09:26:18.092Z,977.93
2019-05-06T09:27:18.118Z,977.97
2019-05-06T09:28:18.132Z,977.97
2019-05-06T09:29:18.128Z,978.01
2019-05-06T09:30:18.106Z,977.99
2019-05-06T09:31:18.170Z,977.96
2019-05-06T09:32:18.110Z,977.92
2019-05-06T09:33:18.122Z,977.95
2019-05-06T09:34:18.117Z,977.90
2019-05-06T09:35:18.106Z,977.86
2019-05-06T09:36:18.108Z,977.82
2019-05-06T09:37:18.126Z,977.89
2019-05-06T09:38:18.134Z,977.85
2019-05-06T09:39:18.104Z,977.84
2019-05-06T09:40:18.099Z,977.85
2019-05-06T09:41:18.139Z,977.85
2019-05-06T09:42:18.140Z,977.84
2019-05-06T09:43:18.125Z,977.83
2019-05-06T09:44:18.108Z,977.86
2019-05-06T09:45:18.105Z,977.85
2019-05-06T09:46:18.106Z,977.97
2019-05-06T09:47:18.167Z,977.81
2019-05-06T09:48:18.170Z,977.95
2019-05-06T09:49:18.109Z,977.82
2019-05-06T09:50:18.102Z,977.89
2019-05-06T09:51:18.109Z,977.85
2019-05-06T09:52:18.135Z,977.82
2019-05-06T09:53:18.179Z,977.87
2019-05-06T09:54:18.130Z,977.79
2019-05-06T09:55:18.133Z,977.86
2019-05-06T09:56:18.081Z,977.90
2019-05-06T09:57:18.162Z,977.76
2019-05-06T09:58:18.160Z,977.67
2019-05-06T09:59:18.171Z,977.80
2019-05-06T10:00:18.146Z,977.79
2019-05-06T10:01:18.177Z,977.85
2019-05-06T10:02:18.101Z,977.90
2019-05-06T10:03:18.126Z,977.83
2019-05-06T10:04:18.123Z,977.87
2019-05-06T10:05:18.187Z,977.90
2019-05-06T10:06:18.153Z,977.74
2019-05-06T10:07:18.183Z,977.93
2019-05-06T10:08:18.109Z,977.72
2019-05-06T10:09:18.125Z,977.73
2019-05-06T10:10:18.118Z,977.74
2019-05-06T10:11:18.184Z,977.70
2019-05-06T10:12:18.140Z,977.76
2019-05-06T10:13:18.141Z,977.73
2019-05-06T10:14:18.173Z,977.74
2019-05-06T10:15:18.132Z,977.78
2019-05-06T10:16:18.135Z,977.73
2019-05-06T10:17:18.163Z,977.74
2019-05-06T10:18:18.210Z,977.73
2019-05-06T10:19:18.147Z,977.77
2019-05-06T10:20:18.134Z,977.62
2019-05-06T10:21:18.185Z,977.74
2019-05-06T10:22:18.193Z,977.67
2019-05-06T10:23:18.198Z,977.65
2019-05-06T10:24:18.145Z,977.66
2019-05-06T10:25:18.132Z,977.68
2019-05-06T10:26:18.150Z,977.78
2019-05-06T10:27:18.126Z,977.64
2019-05-06T10:28:18.146Z,977.73
2019-05-06T10:29:18.169Z,977.62
2019-05-06T10:30:18.145Z,977.61
2019-05-06T10:31:18.180Z,977.66
2019-05-06T10:32:18.160Z,977.59
2019-05-06T10:33:18.140Z,977.55
2019-05-06T10:34:18.150Z,977.61
2019-05-06T10:35:18.160Z,977.57
2019-05-06T10:36:18.176Z,977.70
2019-05-06T10:37:19.230Z,977.59
2019-05-06T10:38:18.165Z,977.52
2019-05-06T10:39:18.136Z,977.62
2019-05-06T10:40:18.163Z,977.68
2019-05-06T10:41:18.187Z,977.51
2019-05-06T10:42:18.165Z,977.56
2019-05-06T10:43:18.160Z,977.64
2019-05-06T10:44:18.176Z,977.63
2019-05-06T10:45:18.150Z,977.57
2019-05-06T10:46:18.163Z,977.72
2019-05-06T10:47:18.193Z,977.87
2019-05-06T10:48:18.173Z,977.73
2019-05-06T10:49:18.157Z,977.81
2019-05-06T10:50:18.144Z,977.97
2019-05-06T10:51:18.189Z,977.78
2019-05-06T10:52:18.159Z,977.85
2019-05-06T10:53:18.196Z,977.39
2019-05-06T10:54:18.166Z,977.60
2019-05-06T10:55:18.166Z,977.73
2019-05-06T10:56:18.210Z,977.73
2019-05-06T10:57:18.155Z,977.70
2019-05-06T10:58:18.181Z,977.84
2019-05-06T10:59:18.185Z,977.74
2019-05-06T11:00:18.174Z,977.79
2019-05-06T11:01:18.175Z,977.74
2019-05-06T11:02:18.166Z,977.76
2019-05-06T11:03:18.168Z,977.88
2019-05-06T11:04:18.181Z,977.80
2019-05-06T11:05:18.189Z,977.78
2019-05-06T11:06:18.191Z,977.85
2019-05-06T11:07:31.105Z,977.82
2019-05-06T11:08:18.213Z,977.66
2019-05-06T11:09:18.165Z,977.95
2019-05-06T11:10:26.995Z,977.78
2019-05-06T11:11:31.633Z,977.73
2019-05-06T11:12:18.187Z,977.88
2019-05-06T11:13:18.168Z,977.73
2019-05-06T11:14:18.165Z,977.71
2019-05-06T11:15:18.200Z,977.70
2019-05-06T11:16:18.206Z,977.63
2019-05-06T11:17:18.201Z,977.75
2019-05-06T11:18:18.237Z,977.65
2019-05-06T11:19:18.172Z,977.64
2019-05-06T11:20:18.183Z,977.73
2019-05-06T11:21:18.159Z,977.70
2019-05-06T11:22:21.438Z,977.65
2019-05-06T11:23:18.229Z,977.64
2019-05-06T11:24:18.175Z,977.73
2019-05-06T11:25:18.175Z,977.61
2019-05-06T11:26:18.184Z,977.65
2019-05-06T11:27:28.960Z,977.54
2019-05-06T11:28:18.225Z,977.67
2019-05-06T11:29:18.235Z,977.74
2019-05-06T11:30:18.174Z,977.72
2019-05-06T11:31:18.214Z,977.61
2019-05-06T11:32:21.040Z,977.64
2019-05-06T11:33:18.175Z,977.56
2019-05-06T11:34:18.229Z,977.62
2019-05-06T11:35:18.227Z,977.67
2019-05-06T11:36:18.207Z,977.65
2019-05-06T11:37:18.193Z,977.70
2019-05-06T11:38:18.193Z,977.68
2019-05-06T11:39:18.149Z,977.61
2019-05-06T11:40:18.233Z,977.53
2019-05-06T11:41:18.238Z,977.56
2019-05-06T11:42:25.217Z,977.42
2019-05-06T11:43:18.196Z,977.50
2019-05-06T11:44:18.260Z,977.60
2019-05-06T11:45:18.183Z,977.65
2019-05-06T11:46:18.213Z,977.44
2019-05-06T11:47:18.190Z,977.61
2019-05-06T11:48:18.174Z,977.45
2019-05-06T11:49:18.220Z,977.62
2019-05-06T11:50:18.181Z,977.44
2019-05-06T11:51:18.262Z,977.48
2019-05-06T11:52:18.193Z,977.52
2019-05-06T11:53:18.229Z,977.51
2019-05-06T11:54:20.776Z,977.30
2019-05-06T11:55:28.911Z,977.41
2019-05-06T11:56:18.198Z,977.47
2019-05-06T11:57:18.205Z,977.36
2019-05-06T11:58:18.247Z,977.44
2019-05-06T11:59:18.194Z,977.45
2019-05-06T12:00:18.212Z,977.38
2019-05-06T12:01:18.263Z,977.46
2019-05-06T12:02:18.184Z,977.43
2019-05-06T12:03:18.191Z,977.50
2019-05-06T12:04:18.212Z,977.52
2019-05-06T12:05:18.242Z,977.52
2019-05-06T12:06:18.216Z,977.56
2019-05-06T12:07:18.231Z,977.54
2019-05-06T12:08:18.253Z,977.52
2019-05-06T12:09:18.233Z,977.50
2019-05-06T12:10:18.227Z,977.61
2019-05-06T12:11:18.253Z,977.40
2019-05-06T12:12:18.220Z,977.50
2019-05-06T12:13:18.216Z,977.39
2019-05-06T12:14:18.231Z,977.45
2019-05-06T12:15:18.197Z,977.52
2019-05-06T12:16:18.251Z,977.52
2019-05-06T12:17:18.246Z,977.61
2019-05-06T12:18:18.233Z,977.67
2019-05-06T12:19:18.216Z,977.56
2019-05-06T12:20:18.278Z,977.61
2019-05-06T12:21:19.260Z,977.45
2019-05-06T12:22:18.225Z,977.64
2019-05-06T12:23:18.286Z,977.49
2019-05-06T12:24:18.233Z,977.63
2019-05-06T12:25:18.222Z,977.61
2019-05-06T12:26:18.260Z,977.62
2019-05-06T12:27:18.226Z,977.56
2019-05-06T12:28:18.220Z,977.45
2019-05-06T12:29:18.285Z,977.55